Charter Quote
Worldwide +1-877-727-2538 Call
Select Language Lang
SAFETY RELIABILITY EXPERIENCE

Private Jet Charter Services - Yinchuan (ZLIC)

Paramount Business Jets offers private jet charter flights and luxury airliner charters to and from Yinchuan.

AIRPORT INFORMATION
ICAOZLIC
IATAINC
LOCATIONYinchuan, China
FACILITY TYPEAIRPORT

At Paramount Business Jets you can hire chartered private jets to and from Yinchuan with as little as 4 hours of notice. All flights booked via Paramount Business Jets are operated by certified direct air carriers that meet and exceed the FAA part 135 and 121 protocol or a foreign equivalent safety authority. Furthermore, Paramount Business Jets subscribes to ARGUS for their third party safety checks of operators, aircraft, and crews prior each and every flight to and from Yinchuan and worldwide.

  • Quote a trip using Yinchuan or call us 24/7 - 365 days a year at +1-877-727-2538.
Questions? Call +1-877-727-2538

METAR Weather Data at Yinchuan, ZLIC, INC

STATIONZLIC
OBSERVEDFri Jun 24, 08:00 UTC
NOWMon Oct 21, 20:03 UTC
AGE29148:03 hr ago
WINDN at 11 mph
VISIBILITYgreater than 7 miles
CLOUDSclear skies
TEMP82°F (28°C)
DEWPT41°F (5°C)
HUMIDITY23%
BAROMETER1013 hPa (29.91 in Hg)
METARZLIC 240800Z 01005MPS 340V040 CAVOK 28/05 Q1013 BECMG TL0845 BLDU

Call us on +1-877-727-2538 (24 Hours) to Hire a Private Jet or Get a Quick Quote.

Find Airports Near any Location

Processing
...